Data Viewer
| City | State | Eastern Time | Source | Temp | DewPt | RH | BP | 5 Min Precip | Wind Speed | Wind Dir | 5 Min Wind Max | 5 Min Wind Max Dir |
|---|---|---|---|---|---|---|---|---|---|---|---|---|
| Oxford | CT | 2026-05-09 04:15 | AWOS | 46 | 43 | 87 | 29.95 | 0 | N | |||
| Oxford | CT | 2026-05-09 10:50 | AWOS | 54 | 48 | 82 | 29.92 | 9 | SE | |||
| Oxford | CT | 2026-05-09 16:53 | AWOS | 54 | 54 | 100 | 29.89 | 0 | N | |||
| Oxford | CT | 2026-05-09 16:13 | AWOS | 54 | 54 | 100 | 29.89 | 3 | ||||
| Oxford | CT | 2026-05-09 14:50 | AWOS | 55 | 52 | 88 | 29.86 | 12 | SE | |||
| Oxford | CT | 2026-05-09 13:21 | AWOS | 61 | 50 | 68 | 29.87 | 5 | SSE | |||
| Oxford | CT | 2026-05-09 13:13 | AWOS | 61 | 50 | 68 | 29.87 | 6 | SSE | |||
| Oxford | CT | 2026-05-09 13:03 | AWOS | 59 | 48 | 67 | 29.88 | 6 | S | |||
| Oxford | CT | 2026-05-09 11:29 | AWOS | 55 | 48 | 77 | 29.91 | 7 | SE | |||
| Oxford | CT | 2026-05-09 11:15 | AWOS | 55 | 48 | 77 | 29.91 | 3 | SE | |||
| Oxford | CT | 2026-05-09 11:05 | AWOS | 54 | 48 | 82 | 29.92 | 7 | SSE | |||
| Oxford | CT | 2026-05-09 11:00 | AWOS | 54 | 48 | 82 | 29.93 | 9 | S | |||
| Oxford | CT | 2026-05-09 10:40 | AWOS | 54 | 48 | 82 | 29.92 | 7 | S | |||
| Oxford | CT | 2026-05-09 22:13 | AWOS | 52 | 52 | 100 | 29.88 | 5 | SE | |||
| Oxford | CT | 2026-05-09 10:34 | AWOS | 54 | 48 | 82 | 29.92 | 5 | ||||
| Oxford | CT | 2026-05-09 10:25 | AWOS | 52 | 48 | 87 | 29.92 | 5 | SSE | |||
| Oxford | CT | 2026-05-09 10:24 | AWOS | 52 | 48 | 87 | 29.92 | 5 | SSE | |||
| Oxford | CT | 2026-05-09 10:17 | AWOS | 52 | 48 | 87 | 29.92 | 5 | S | |||
| Oxford | CT | 2026-05-09 10:15 | AWOS | 52 | 48 | 87 | 29.92 | 3 | SSW | |||
| Oxford | CT | 2026-05-09 10:10 | AWOS | 52 | 48 | 87 | 29.92 | 0 | N | |||
| Oxford | CT | 2026-05-09 10:05 | AWOS | 52 | 48 | 87 | 29.92 | 0 | N | |||
| Oxford | CT | 2026-05-09 09:55 | AWOS | 52 | 48 | 87 | 29.92 | 5 | SE | |||
| Oxford | CT | 2026-05-09 09:43 | AWOS | 52 | 46 | 82 | 29.92 | 5 | ||||
| Oxford | CT | 2026-05-09 09:40 | AWOS | 50 | 46 | 87 | 29.92 | 3 | E | |||
| Oxford | CT | 2026-05-09 09:25 | AWOS | 48 | 46 | 93 | 29.93 | 5 | E | |||
| Oxford | CT | 2026-05-09 22:05 | AWOS | 52 | 52 | 100 | 29.88 | 6 | SSE | |||
| Oxford | CT | 2026-05-09 22:46 | AWOS | 52 | 52 | 100 | 29.89 | 5 | S | |||
| Oxford | CT | 2026-05-09 09:10 | AWOS | 48 | 46 | 93 | 29.94 | 7 | ESE | |||
| Oxford | CT | 2026-05-10 03:09 | AWOS | 52 | 52 | 100 | 29.89 | 0 | N | |||
| Oxford | CT | 2026-05-10 03:56 | AWOS | 50 | 50 | 100 | 29.89 | 5 | NW | |||
| Oxford | CT | 2026-05-10 03:55 | AWOS | 50 | 50 | 100 | 29.89 | 5 | NW | |||
| Oxford | CT | 2026-05-10 03:50 | AWOS | 50 | 50 | 100 | 29.88 | 0 | N | |||
| Oxford | CT | 2026-05-10 03:45 | AWOS | 52 | 50 | 94 | 29.89 | 0 | N | |||
| Oxford | CT | 2026-05-10 03:40 | AWOS | 52 | 50 | 94 | 29.89 | 0 | N | |||
| Oxford | CT | 2026-05-10 03:35 | AWOS | 52 | 50 | 94 | 29.89 | 0 | N | |||
| Oxford | CT | 2026-05-10 03:30 | AWOS | 52 | 50 | 94 | 29.89 | 0 | N | |||
| Oxford | CT | 2026-05-10 03:25 | AWOS | 52 | 50 | 94 | 29.89 | 0 | N | |||
| Oxford | CT | 2026-05-10 03:20 | AWOS | 52 | 52 | 100 | 29.89 | 0 | N | |||
| Oxford | CT | 2026-05-10 03:15 | AWOS | 52 | 52 | 100 | 29.89 | 0 | N | |||
| Oxford | CT | 2026-05-10 03:10 | AWOS | 52 | 52 | 100 | 29.89 | 0 | N | |||
| Oxford | CT | 2026-05-10 03:05 | AWOS | 52 | 52 | 100 | 29.89 | 0 | N | |||
| Oxford | CT | 2026-05-10 01:47 | AWOS | 52 | 52 | 100 | 29.88 | 3 | SSE | |||
| Oxford | CT | 2026-05-10 03:00 | AWOS | 52 | 52 | 100 | 29.89 | 0 | N | |||
| Oxford | CT | 2026-05-10 02:56 | AWOS | 51 | 51 | 100 | 29.89 | 0 | N | |||
| Oxford | CT | 2026-05-10 02:55 | AWOS | 52 | 52 | 100 | 29.89 | 0 | N | |||
| Oxford | CT | 2026-05-10 02:50 | AWOS | 52 | 50 | 94 | 29.89 | 0 | N | |||
| Oxford | CT | 2026-05-10 02:45 | AWOS | 52 | 50 | 94 | 29.89 | 0 | N | |||
| Oxford | CT | 2026-05-10 02:40 | AWOS | 52 | 50 | 94 | 29.89 | 3 | SW | |||
| Oxford | CT | 2026-05-10 02:35 | AWOS | 52 | 50 | 94 | 29.89 | 0 | N | |||
| Oxford | CT | 2026-05-10 02:30 | AWOS | 52 | 50 | 94 | 29.89 | 0 | N | |||
| Oxford | CT | 2026-05-10 02:25 | AWOS | 52 | 52 | 100 | 29.89 | 3 | SW | |||
| Oxford | CT | 2026-05-10 02:20 | AWOS | 52 | 52 | 100 | 29.89 | 0 | N | |||
| Oxford | CT | 2026-05-10 02:15 | AWOS | 52 | 50 | 94 | 29.88 | 3 | SSW | |||
| Oxford | CT | 2026-05-09 09:15 | AWOS | 48 | 46 | 93 | 29.94 | 7 | E | |||
| Oxford | CT | 2026-05-09 09:05 | AWOS | 48 | 46 | 93 | 29.94 | 7 | E | |||
| Oxford | CT | 2026-05-09 04:20 | AWOS | 46 | 43 | 87 | 29.95 | 0 | N | |||
| Oxford | CT | 2026-05-09 05:20 | AWOS | 46 | 45 | 93 | 29.94 | 5 | E | |||
| Oxford | CT | 2026-05-09 06:10 | AWOS | 46 | 45 | 93 | 29.95 | 0 | N | |||
| Oxford | CT | 2026-05-09 06:05 | AWOS | 46 | 45 | 93 | 29.95 | 3 | E | |||
| Oxford | CT | 2026-05-09 06:00 | AWOS | 46 | 45 | 93 | 29.95 | 0 | N | |||
| Oxford | CT | 2026-05-09 05:56 | AWOS | 46 | 44 | 93 | 29.95 | 3 | ENE | |||
| Oxford | CT | 2026-05-09 05:55 | AWOS | 46 | 45 | 93 | 29.95 | 3 | ENE | |||
| Oxford | CT | 2026-05-09 05:50 | AWOS | 46 | 45 | 93 | 29.94 | 3 | ENE | |||
| Oxford | CT | 2026-05-09 05:45 | AWOS | 46 | 45 | 93 | 29.94 | 3 | ENE | |||
| Oxford | CT | 2026-05-09 05:40 | AWOS | 46 | 45 | 93 | 29.94 | 0 | N | |||
| Oxford | CT | 2026-05-09 05:35 | AWOS | 46 | 45 | 93 | 29.94 | 3 | E | |||
| Oxford | CT | 2026-05-09 05:30 | AWOS | 46 | 45 | 93 | 29.94 | 5 | E | |||
| Oxford | CT | 2026-05-09 05:25 | AWOS | 46 | 45 | 93 | 29.94 | 3 | E | |||
| Oxford | CT | 2026-05-09 05:15 | AWOS | 46 | 45 | 93 | 29.94 | 5 | E | |||
| Oxford | CT | 2026-05-09 06:20 | AWOS | 46 | 43 | 87 | 29.95 | 6 | NNE | |||
| Oxford | CT | 2026-05-09 05:10 | AWOS | 46 | 45 | 93 | 29.94 | 5 | E | |||
| Oxford | CT | 2026-05-09 05:05 | AWOS | 46 | 45 | 93 | 29.94 | 3 | E | |||
| Oxford | CT | 2026-05-09 05:00 | AWOS | 46 | 45 | 93 | 29.95 | 0 | N | |||
| Oxford | CT | 2026-05-09 04:56 | AWOS | 46 | 44 | 93 | 29.95 | 3 | ENE | |||
| Oxford | CT | 2026-05-09 04:55 | AWOS | 46 | 45 | 93 | 29.94 | 5 | ENE | |||
| Oxford | CT | 2026-05-09 04:50 | AWOS | 46 | 45 | 93 | 29.94 | 5 | E | |||
| Oxford | CT | 2026-05-09 04:45 | AWOS | 45 | 45 | 100 | 29.94 | 3 | E | |||
| Oxford | CT | 2026-05-09 04:40 | AWOS | 46 | 45 | 93 | 29.95 | 3 | ESE | |||
| Oxford | CT | 2026-05-09 04:35 | AWOS | 46 | 45 | 93 | 29.95 | 0 | N | |||
| Oxford | CT | 2026-05-09 04:30 | AWOS | 46 | 43 | 87 | 29.94 | 0 | N | |||
| Oxford | CT | 2026-05-09 04:25 | AWOS | 46 | 43 | 87 | 29.95 | 0 | N | |||
| Oxford | CT | 2026-05-09 06:15 | AWOS | 45 | 43 | 93 | 29.95 | 0 | N | |||
| Oxford | CT | 2026-05-09 06:25 | AWOS | 46 | 43 | 87 | 29.95 | 6 | N | |||
| Oxford | CT | 2026-05-09 08:56 | AWOS | 48 | 45 | 89 | 29.95 | 6 | ENE | |||
| Oxford | CT | 2026-05-09 07:30 | AWOS | 46 | 43 | 87 | 29.96 | 5 | ENE | |||
| Oxford | CT | 2026-05-09 08:55 | AWOS | 48 | 45 | 87 | 29.95 | 6 | ENE | |||
| Oxford | CT | 2026-05-09 08:50 | AWOS | 48 | 45 | 87 | 29.95 | 5 | ENE | |||
| Oxford | CT | 2026-05-09 08:40 | AWOS | 46 | 45 | 93 | 29.95 | 3 | E | |||
| Oxford | CT | 2026-05-09 08:25 | AWOS | 46 | 45 | 93 | 29.95 | 5 | E | |||
| Oxford | CT | 2026-05-09 08:20 | AWOS | 46 | 45 | 93 | 29.95 | 6 | E | |||
| Oxford | CT | 2026-05-09 08:15 | AWOS | 46 | 45 | 93 | 29.95 | 6 | E | |||
| Oxford | CT | 2026-05-09 08:05 | AWOS | 46 | 45 | 93 | 29.96 | 7 | E | |||
| Oxford | CT | 2026-05-09 07:56 | AWOS | 46 | 44 | 93 | 29.95 | 7 | E | |||
| Oxford | CT | 2026-05-09 07:50 | AWOS | 46 | 45 | 93 | 29.95 | 6 | ENE | |||
| Oxford | CT | 2026-05-09 07:40 | AWOS | 46 | 43 | 87 | 29.96 | 6 | E | |||
| Oxford | CT | 2026-05-09 07:35 | AWOS | 46 | 43 | 87 | 29.96 | 3 | ENE | |||
| Oxford | CT | 2026-05-09 07:25 | AWOS | 46 | 43 | 87 | 29.95 | 7 | ENE | |||
| Oxford | CT | 2026-05-09 06:30 | AWOS | 46 | 43 | 87 | 29.94 | 6 | NE | |||
| Oxford | CT | 2026-05-09 07:20 | AWOS | 46 | 43 | 87 | 29.95 | 7 | NE | |||
| Oxford | CT | 2026-05-09 07:15 | AWOS | 46 | 43 | 87 | 29.95 | 7 | ENE | |||
| Oxford | CT | 2026-05-09 07:10 | AWOS | 46 | 45 | 93 | 29.95 | 3 | NE | |||
| Oxford | CT | 2026-05-09 07:05 | AWOS | 46 | 43 | 87 | 29.95 | 5 | ENE | |||
| Oxford | CT | 2026-05-09 07:00 | AWOS | 46 | 43 | 87 | 29.95 | 6 | NE | |||
| Oxford | CT | 2026-05-09 06:56 | AWOS | 46 | 44 | 93 | 29.95 | 6 | NE | |||
| Oxford | CT | 2026-05-09 06:55 | AWOS | 46 | 43 | 87 | 29.95 | 6 | NE | |||
| Oxford | CT | 2026-05-09 06:50 | AWOS | 46 | 43 | 87 | 29.95 | 7 | NNE | |||
| Oxford | CT | 2026-05-09 06:45 | AWOS | 46 | 43 | 87 | 29.95 | 6 | NNE | |||
| Oxford | CT | 2026-05-09 06:40 | AWOS | 46 | 43 | 87 | 29.94 | 7 | NNE | |||
| Oxford | CT | 2026-05-09 06:35 | AWOS | 46 | 43 | 87 | 29.94 | 6 | NE | |||
| Oxford | CT | 2026-05-10 04:00 | AWOS | 50 | 50 | 100 | 29.89 | 5 | NW |
data collection created in 0.029295921325684 (queried in 0.016591) rendered in: 0.00014591217041016

